Time;durP1;ratioP1;P1;durP2;ratioP2;P2;SDS_P1;SDS_P2;PMS_P1;PMS_P2;Temp;Humidity;BMP_temperature;BMP_pressure;BME280_temperature;BME280_humidity;BME280_pressure;Samples;Min_cycle;Max_cycle;Signal;HPM_P1;HPM_P2
2022/01/22 00:04:20;;;;;;;10.95;7.90;;;;;;;;;;10597142;27;20038;-73
2022/01/22 00:09:25;;;;;;;6.50;5.37;;;;;;;;;;10615208;27;20026;-76
2022/01/22 00:14:26;;;;;;;10.00;8.18;;;;;;;;;;10585094;27;20345;-73
2022/01/22 00:19:26;;;;;;;8.83;7.93;;;;;;;;;;10552713;28;20068;-74
2022/01/22 00:24:35;;;;;;;7.90;4.93;;;;;;;;;;10572624;28;20020;-76
2022/01/22 00:29:36;;;;;;;4.85;4.45;;;;;;;;;;10573610;28;20027;-77
2022/01/22 00:34:37;;;;;;;8.53;6.53;;;;;;;;;;10570622;28;20467;-78
2022/01/22 00:39:37;;;;;;;8.70;7.82;;;;;;;;;;10536810;28;20074;-72
2022/01/22 00:44:38;;;;;;;7.00;6.40;;;;;;;;;;10552598;28;20107;-71
2022/01/22 00:49:38;;;;;;;5.90;5.47;;;;;;;;;;10570173;28;20116;-76
2022/01/22 00:54:38;;;;;;;8.25;5.55;;;;;;;;;;10571370;28;20027;-71
2022/01/22 00:59:39;;;;;;;4.87;4.63;;;;;;;;;;10535356;28;20405;-72
2022/01/22 01:04:39;;;;;;;5.27;4.90;;;;;;;;;;10607933;27;20265;-76
2022/01/22 01:09:40;;;;;;;9.90;8.32;;;;;;;;;;10613397;27;20260;-77
2022/01/22 01:14:52;;;;;;;5.47;5.18;;;;;;;;;;10594351;27;20143;-72
2022/01/22 01:35:50;;;;;;;12.07;11.43;;;;;;;;;;10612513;27;20098;-73
2022/01/22 01:41:01;;;;;;;11.02;10.43;;;;;;;;;;10580819;27;20465;-72
2022/01/22 01:46:01;;;;;;;16.70;11.20;;;;;;;;;;10569442;28;20042;-78
2022/01/22 01:51:02;;;;;;;7.50;6.75;;;;;;;;;;10550911;28;20457;-79
2022/01/22 01:57:24;;;;;;;4.93;4.60;;;;;;;;;;10551198;28;20019;-78
2022/01/22 02:01:22;;;;;;;11.57;11.07;;;;;;;;;;10576898;27;20512;-71
2022/01/22 02:06:22;;;;;;;9.63;9.02;;;;;;;;;;10592618;27;20023;-71
2022/01/22 02:11:25;;;;;;;7.35;5.50;;;;;;;;;;10592259;27;20449;-72
2022/01/22 02:27:08;;;;;;;3.83;3.55;;;;;;;;;;10610881;27;20265;-71
2022/01/22 02:37:34;;;;;;;11.02;10.52;;;;;;;;;;10610140;27;20027;-72
2022/01/22 02:42:35;;;;;;;7.32;6.82;;;;;;;;;;10571986;27;20238;-78
2022/01/22 02:47:35;;;;;;;6.20;5.70;;;;;;;;;;10567019;28;20022;-74
2022/01/22 02:52:36;;;;;;;9.80;7.35;;;;;;;;;;10567555;28;20028;-72
2022/01/22 02:57:36;;;;;;;10.07;9.27;;;;;;;;;;10537446;28;20033;-71
2022/01/22 03:02:37;;;;;;;6.68;6.35;;;;;;;;;;10562798;27;20593;-75
2022/01/22 03:07:40;;;;;;;8.38;7.78;;;;;;;;;;10591192;27;20015;-71
2022/01/22 03:23:06;;;;;;;9.18;8.68;;;;;;;;;;10608123;28;20111;-70
2022/01/22 03:28:08;;;;;;;7.72;7.22;;;;;;;;;;10577551;28;20023;-75
2022/01/22 03:33:08;;;;;;;11.20;10.18;;;;;;;;;;10565087;28;20027;-71
2022/01/22 03:38:09;;;;;;;4.78;4.50;;;;;;;;;;10548055;28;20058;-75
2022/01/22 03:43:10;;;;;;;6.10;5.50;;;;;;;;;;10547153;28;20106;-74
2022/01/22 03:48:10;;;;;;;4.90;4.60;;;;;;;;;;10566286;28;20450;-74
2022/01/22 03:53:10;;;;;;;4.03;3.72;;;;;;;;;;10564988;28;20019;-75
2022/01/22 03:58:10;;;;;;;4.80;4.50;;;;;;;;;;10546896;28;20142;-75
2022/01/22 04:03:31;;;;;;;7.00;6.50;;;;;;;;;;10571907;28;20027;-72
2022/01/22 04:08:31;;;;;;;6.97;6.47;;;;;;;;;;10589095;28;20894;-72
2022/01/22 04:13:34;;;;;;;14.23;13.48;;;;;;;;;;10588863;28;20100;-73
2022/01/22 04:29:12;;;;;;;5.50;5.30;;;;;;;;;;10615251;27;20026;-72
2022/01/22 04:34:13;;;;;;;5.45;4.95;;;;;;;;;;10614478;27;20023;-71
2022/01/22 04:39:13;;;;;;;3.75;3.20;;;;;;;;;;10596032;27;20023;-72
2022/01/22 04:44:14;;;;;;;17.15;6.68;;;;;;;;;;10614875;27;20023;-77
2022/01/22 04:59:42;;;;;;;5.30;3.85;;;;;;;;;;10571165;28;20043;-74
2022/01/22 05:04:43;;;;;;;15.95;4.30;;;;;;;;;;10564664;28;20031;-75
2022/01/22 05:09:43;;;;;;;4.53;4.13;;;;;;;;;;10571230;28;20455;-75
2022/01/22 05:14:44;;;;;;;6.30;3.37;;;;;;;;;;10552760;28;20043;-78
2022/01/22 05:19:51;;;;;;;5.82;5.32;;;;;;;;;;10551879;27;20685;-75
2022/01/22 05:24:56;;;;;;;8.60;4.80;;;;;;;;;;10571537;28;20015;-76
2022/01/22 05:30:07;;;;;;;8.18;4.70;;;;;;;;;;10569804;28;20072;-74
2022/01/22 05:40:28;;;;;;;11.73;7.82;;;;;;;;;;10612672;27;20028;-72
2022/01/22 05:45:29;;;;;;;9.27;4.45;;;;;;;;;;10593934;27;20015;-72
2022/01/22 06:00:41;;;;;;;10.05;7.10;;;;;;;;;;10594334;27;20111;-74
2022/01/22 06:05:41;;;;;;;10.18;6.57;;;;;;;;;;10581182;27;20020;-75
2022/01/22 06:10:42;;;;;;;20.05;8.18;;;;;;;;;;10567659;28;20538;-72
2022/01/22 06:15:43;;;;;;;12.30;8.73;;;;;;;;;;10550107;28;20417;-72
2022/01/22 06:20:43;;;;;;;15.10;8.60;;;;;;;;;;10552486;27;20114;-73
2022/01/22 06:25:43;;;;;;;11.18;9.52;;;;;;;;;;10592750;27;20489;-77
2022/01/22 06:30:46;;;;;;;9.00;7.97;;;;;;;;;;10591868;27;20019;-70
2022/01/22 06:35:46;;;;;;;8.18;7.38;;;;;;;;;;10607887;27;20015;-75
2022/01/22 06:46:10;;;;;;;5.57;4.80;;;;;;;;;;10572955;27;20265;-75
2022/01/22 06:51:12;;;;;;;4.63;4.30;;;;;;;;;;10593322;27;20030;-81
2022/01/22 06:56:19;;;;;;;7.63;7.03;;;;;;;;;;10589391;27;20031;-75
2022/01/22 07:01:19;;;;;;;8.50;7.70;;;;;;;;;;10567492;28;20097;-76
2022/01/22 07:06:20;;;;;;;6.88;6.25;;;;;;;;;;10566534;28;20072;-75
2022/01/22 07:11:20;;;;;;;13.30;9.20;;;;;;;;;;10566500;28;20032;-76
2022/01/22 07:16:20;;;;;;;12.35;7.30;;;;;;;;;;10567378;28;20097;-80
2022/01/22 07:21:21;;;;;;;14.15;8.77;;;;;;;;;;10566788;28;20470;-80
2022/01/22 07:26:22;;;;;;;15.82;12.38;;;;;;;;;;10564788;28;20039;-74
2022/01/22 07:31:24;;;;;;;19.13;10.17;;;;;;;;;;10550287;28;20485;-75
2022/01/22 07:36:25;;;;;;;8.05;7.35;;;;;;;;;;10561392;28;20271;-79
2022/01/22 07:41:25;;;;;;;5.88;5.32;;;;;;;;;;10563164;28;20031;-76
2022/01/22 07:46:25;;;;;;;5.18;4.78;;;;;;;;;;10562751;28;20031;-78
2022/01/22 07:51:26;;;;;;;7.93;5.33;;;;;;;;;;10562945;28;20084;-74
2022/01/22 07:56:26;;;;;;;5.55;3.88;;;;;;;;;;10563903;28;20030;-80
2022/01/22 08:01:27;;;;;;;4.82;4.15;;;;;;;;;;10569589;28;20524;-77
2022/01/22 08:06:27;;;;;;;12.70;4.80;;;;;;;;;;10530309;28;20032;-76
2022/01/22 08:11:27;;;;;;;5.18;4.15;;;;;;;;;;10546675;28;20266;-78
2022/01/22 08:16:28;;;;;;;3.23;2.93;;;;;;;;;;10528221;28;20116;-72
2022/01/22 08:21:28;;;;;;;6.40;3.70;;;;;;;;;;10528353;28;20285;-74
2022/01/22 08:26:33;;;;;;;6.22;2.70;;;;;;;;;;10539011;28;20381;-73
2022/01/22 08:36:34;;;;;;;8.65;3.33;;;;;;;;;;10529510;28;20518;-74
2022/01/22 08:41:34;;;;;;;8.17;2.73;;;;;;;;;;10528991;28;20035;-76
2022/01/22 08:46:35;;;;;;;4.28;3.05;;;;;;;;;;10526386;28;20408;-72
2022/01/22 08:51:38;;;;;;;3.72;2.67;;;;;;;;;;10526713;28;20154;-77
2022/01/22 08:56:39;;;;;;;5.53;3.15;;;;;;;;;;10526897;28;20024;-77
2022/01/22 09:01:44;;;;;;;6.85;2.80;;;;;;;;;;10490061;28;20059;-72
2022/01/22 09:06:44;;;;;;;7.13;3.00;;;;;;;;;;10484289;28;20103;-73
2022/01/22 09:11:45;;;;;;;2.90;2.40;;;;;;;;;;10500106;28;20028;-77
2022/01/22 09:16:47;;;;;;;3.90;3.10;;;;;;;;;;10502112;28;20110;-73
2022/01/22 09:21:48;;;;;;;2.88;2.65;;;;;;;;;;10516914;28;20051;-78
2022/01/22 09:26:48;;;;;;;8.30;3.88;;;;;;;;;;10537393;28;20103;-76
2022/01/22 09:31:48;;;;;;;8.15;3.17;;;;;;;;;;10520155;28;20032;-79
2022/01/22 09:36:48;;;;;;;4.67;3.67;;;;;;;;;;10500458;28;20033;-79
2022/01/22 09:41:49;;;;;;;3.50;3.20;;;;;;;;;;10500858;28;20028;-75
2022/01/22 09:46:50;;;;;;;4.37;3.97;;;;;;;;;;10520216;28;20107;-79
2022/01/22 09:51:51;;;;;;;5.22;3.03;;;;;;;;;;10526216;28;20016;-75
2022/01/22 09:56:51;;;;;;;4.88;3.15;;;;;;;;;;10524731;28;20482;-76
2022/01/22 10:02:05;;;;;;;5.95;2.53;;;;;;;;;;10561606;28;20050;-73
2022/01/22 10:07:13;;;;;;;14.63;5.03;;;;;;;;;;10560671;28;20111;-75
2022/01/22 10:12:19;;;;;;;10.85;4.78;;;;;;;;;;10525056;28;20028;-74
2022/01/22 10:17:37;;;;;;;5.72;3.95;;;;;;;;;;10525482;28;20483;-75
2022/01/22 10:22:44;;;;;;;5.63;3.35;;;;;;;;;;10553235;28;20194;-81
2022/01/22 10:27:48;;;;;;;6.30;2.65;;;;;;;;;;10565122;28;20101;-76
2022/01/22 10:32:59;;;;;;;9.30;3.40;;;;;;;;;;10565636;28;20447;-79
2022/01/22 10:38:02;;;;;;;6.28;3.42;;;;;;;;;;10567918;28;20032;-79
2022/01/22 10:43:41;;;;;;;13.23;3.22;;;;;;;;;;10568257;28;20571;-80
2022/01/22 10:48:44;;;;;;;5.40;1.73;;;;;;;;;;10523688;28;20031;-75
2022/01/22 10:53:46;;;;;;;7.88;2.28;;;;;;;;;;10548125;28;20024;-78
2022/01/22 10:58:50;;;;;;;3.10;1.88;;;;;;;;;;10533707;28;20087;-73
2022/01/22 11:04:10;;;;;;;11.38;2.25;;;;;;;;;;10546948;28;20028;-79
2022/01/22 11:09:12;;;;;;;5.28;2.55;;;;;;;;;;10565691;27;20063;-77
2022/01/22 11:14:12;;;;;;;2.88;2.20;;;;;;;;;;10590225;28;20030;-73
2022/01/22 11:19:32;;;;;;;9.82;2.80;;;;;;;;;;10603714;28;20023;-81
2022/01/22 11:24:37;;;;;;;4.78;1.98;;;;;;;;;;10608106;28;20015;-74
2022/01/22 11:29:45;;;;;;;4.57;2.20;;;;;;;;;;10588785;28;20118;-74
2022/01/22 11:34:47;;;;;;;7.57;1.93;;;;;;;;;;10590731;27;20609;-78
2022/01/22 11:39:48;;;;;;;4.65;1.98;;;;;;;;;;10597258;27;20230;-80
2022/01/22 11:45:01;;;;;;;5.60;2.00;;;;;;;;;;10570061;27;20106;-76
2022/01/22 11:50:10;;;;;;;4.95;3.10;;;;;;;;;;10578037;28;20508;-76
2022/01/22 11:55:11;;;;;;;6.20;2.88;;;;;;;;;;10596737;27;20474;-73
2022/01/22 12:00:24;;;;;;;10.18;2.75;;;;;;;;;;10597087;27;20505;-78
2022/01/22 12:05:24;;;;;;;4.65;3.13;;;;;;;;;;10596774;27;20023;-73
2022/01/22 12:10:37;;;;;;;4.45;2.40;;;;;;;;;;10571004;28;20448;-77
2022/01/22 12:15:40;;;;;;;3.97;2.65;;;;;;;;;;10573986;27;20011;-72
2022/01/22 12:25:49;;;;;;;7.53;3.60;;;;;;;;;;10615061;27;20498;-79
2022/01/22 12:30:51;;;;;;;6.38;3.35;;;;;;;;;;10595964;27;20516;-75
2022/01/22 12:35:56;;;;;;;3.92;3.17;;;;;;;;;;10595344;27;20019;-78
2022/01/22 12:41:29;;;;;;;7.05;4.20;;;;;;;;;;10595134;27;20068;-74
2022/01/22 12:46:31;;;;;;;8.10;4.13;;;;;;;;;;10612992;27;20414;-73
2022/01/22 12:51:31;;;;;;;6.25;4.38;;;;;;;;;;10614036;27;20150;-74
2022/01/22 13:01:34;;;;;;;25.02;4.45;;;;;;;;;;10602523;27;20035;-75
2022/01/22 13:06:44;;;;;;;7.90;4.20;;;;;;;;;;10594690;27;20465;-73
2022/01/22 13:11:46;;;;;;;4.57;3.42;;;;;;;;;;10594185;27;20027;-75
2022/01/22 13:16:51;;;;;;;4.55;4.03;;;;;;;;;;10592213;27;20389;-74
2022/01/22 13:21:53;;;;;;;7.55;3.15;;;;;;;;;;10576022;27;20020;-73
2022/01/22 13:27:11;;;;;;;9.15;3.45;;;;;;;;;;10562506;28;20015;-72
2022/01/22 13:38:13;;;;;;;4.35;3.60;;;;;;;;;;10573544;27;20345;-73
2022/01/22 13:48:29;;;;;;;7.85;4.47;;;;;;;;;;10611819;27;20027;-76
2022/01/22 13:53:32;;;;;;;10.17;4.87;;;;;;;;;;10594805;27;20023;-76
2022/01/22 13:58:33;;;;;;;8.75;4.43;;;;;;;;;;10594745;27;20493;-76
2022/01/22 14:03:44;;;;;;;5.95;4.78;;;;;;;;;;10593116;27;20103;-74
2022/01/22 14:08:46;;;;;;;10.18;4.10;;;;;;;;;;10588984;27;20111;-77
2022/01/22 14:14:01;;;;;;;6.53;3.28;;;;;;;;;;10566846;28;20023;-71
2022/01/22 14:19:03;;;;;;;11.43;3.53;;;;;;;;;;10583569;27;20034;-74
2022/01/22 14:24:08;;;;;;;6.38;4.43;;;;;;;;;;10591280;27;20019;-78
2022/01/22 14:29:14;;;;;;;15.88;4.15;;;;;;;;;;10592120;27;20071;-72
2022/01/22 14:34:34;;;;;;;5.00;4.50;;;;;;;;;;10590718;27;20569;-76
2022/01/22 14:45:06;;;;;;;13.75;6.25;;;;;;;;;;10567293;28;20027;-74
2022/01/22 14:50:07;;;;;;;10.07;5.25;;;;;;;;;;10548849;27;20019;-78
2022/01/22 14:55:08;;;;;;;4.55;4.15;;;;;;;;;;10549728;28;20115;-76
2022/01/22 15:00:10;;;;;;;12.25;4.57;;;;;;;;;;10547313;28;20421;-74
2022/01/22 15:05:13;;;;;;;4.40;3.22;;;;;;;;;;10532040;28;20524;-80
2022/01/22 15:10:15;;;;;;;6.97;4.50;;;;;;;;;;10546916;28;20531;-74
2022/01/22 15:15:19;;;;;;;5.25;3.60;;;;;;;;;;10553973;28;20023;-80
2022/01/22 15:20:24;;;;;;;8.55;5.00;;;;;;;;;;10589551;28;20054;-80
2022/01/22 15:25:24;;;;;;;7.82;3.80;;;;;;;;;;10588823;28;20019;-76
2022/01/22 15:30:34;;;;;;;8.30;6.13;;;;;;;;;;10574357;28;20146;-74
2022/01/22 15:35:34;;;;;;;4.28;3.05;;;;;;;;;;10563629;28;20338;-78
2022/01/22 15:40:35;;;;;;;7.37;4.67;;;;;;;;;;10563297;28;20093;-77
2022/01/22 15:45:37;;;;;;;4.25;3.78;;;;;;;;;;10587685;28;20015;-77
2022/01/22 15:50:39;;;;;;;5.47;3.65;;;;;;;;;;10597676;28;20113;-75
2022/01/22 15:55:39;;;;;;;7.00;4.60;;;;;;;;;;10567484;28;20107;-72
2022/01/22 16:00:41;;;;;;;5.25;4.82;;;;;;;;;;10569694;28;20576;-75
2022/01/22 16:05:42;;;;;;;7.13;6.43;;;;;;;;;;10595963;28;20505;-74
2022/01/22 16:10:42;;;;;;;7.50;4.68;;;;;;;;;;10588559;28;20504;-74
2022/01/22 16:15:43;;;;;;;6.55;5.18;;;;;;;;;;10603363;28;20038;-73
2022/01/22 16:20:44;;;;;;;5.07;4.47;;;;;;;;;;10551078;28;20476;-79
2022/01/22 16:25:44;;;;;;;9.45;6.80;;;;;;;;;;10596282;27;20487;-77
2022/01/22 16:30:44;;;;;;;8.82;5.95;;;;;;;;;;10595696;27;20030;-76
2022/01/22 16:35:47;;;;;;;9.77;5.37;;;;;;;;;;10595548;27;20019;-78
2022/01/22 16:40:48;;;;;;;9.57;6.20;;;;;;;;;;10614137;27;20115;-75
2022/01/22 16:51:30;;;;;;;6.53;5.32;;;;;;;;;;10613151;27;20031;-76
2022/01/22 17:01:54;;;;;;;7.70;5.35;;;;;;;;;;10569500;27;20050;-74
2022/01/22 17:06:54;;;;;;;5.35;4.85;;;;;;;;;;10594450;27;20506;-79
2022/01/22 17:17:34;;;;;;;8.95;6.05;;;;;;;;;;10478416;28;20063;-75
2022/01/22 17:22:34;;;;;;;9.70;7.83;;;;;;;;;;10550277;27;20035;-77
2022/01/22 17:27:35;;;;;;;5.47;4.63;;;;;;;;;;10567735;28;20020;-73
2022/01/22 17:32:35;;;;;;;7.60;4.67;;;;;;;;;;10577583;27;20122;-73
2022/01/22 17:37:35;;;;;;;7.90;5.30;;;;;;;;;;10550794;28;20027;-73
2022/01/22 17:42:37;;;;;;;6.80;4.95;;;;;;;;;;10552320;28;20019;-77
2022/01/22 17:47:37;;;;;;;9.00;4.60;;;;;;;;;;10567940;28;20042;-73
2022/01/22 17:52:38;;;;;;;9.38;3.95;;;;;;;;;;10550110;28;20032;-74
2022/01/22 17:57:38;;;;;;;9.30;4.20;;;;;;;;;;10551170;28;20484;-74
2022/01/22 18:02:39;;;;;;;6.63;4.72;;;;;;;;;;10550988;28;20645;-72
2022/01/22 18:07:39;;;;;;;11.27;5.43;;;;;;;;;;10548989;28;20031;-74
2022/01/22 18:12:39;;;;;;;5.38;4.18;;;;;;;;;;10585590;27;20376;-74
2022/01/22 18:17:40;;;;;;;6.93;6.32;;;;;;;;;;10591813;27;20514;-72
2022/01/22 18:22:40;;;;;;;9.85;7.55;;;;;;;;;;10590296;27;20030;-74
2022/01/22 18:27:40;;;;;;;4.67;4.23;;;;;;;;;;10590436;27;20022;-74
2022/01/22 18:32:41;;;;;;;10.73;6.47;;;;;;;;;;10591070;27;20352;-73
2022/01/22 18:37:41;;;;;;;9.88;5.90;;;;;;;;;;10590264;27;20356;-72
2022/01/22 18:42:43;;;;;;;6.43;5.83;;;;;;;;;;10589256;27;20042;-77
2022/01/22 18:47:43;;;;;;;7.82;6.05;;;;;;;;;;10591389;27;20019;-73
2022/01/22 18:52:45;;;;;;;7.47;6.40;;;;;;;;;;10556183;28;20394;-78
2022/01/22 18:57:49;;;;;;;9.07;6.88;;;;;;;;;;10547914;28;20882;-78
2022/01/22 19:02:50;;;;;;;9.25;5.50;;;;;;;;;;10548651;28;20417;-78
2022/01/22 19:07:51;;;;;;;6.43;5.45;;;;;;;;;;10564635;28;20115;-74
2022/01/22 19:12:51;;;;;;;12.43;6.45;;;;;;;;;;10546668;28;20031;-73
2022/01/22 19:17:52;;;;;;;5.83;4.43;;;;;;;;;;10547603;28;20114;-74
2022/01/22 19:28:03;;;;;;;12.48;8.80;;;;;;;;;;10608725;28;20598;-74
2022/01/22 19:33:05;;;;;;;11.35;9.85;;;;;;;;;;10591949;28;20031;-77
2022/01/22 19:38:06;;;;;;;12.23;10.95;;;;;;;;;;10590908;28;20034;-73
2022/01/22 19:43:07;;;;;;;11.80;9.75;;;;;;;;;;10554718;28;20024;-75
2022/01/22 19:48:08;;;;;;;8.32;6.88;;;;;;;;;;10563727;28;20537;-73
2022/01/22 19:53:10;;;;;;;11.65;6.63;;;;;;;;;;10571827;27;20075;-74
2022/01/22 19:58:11;;;;;;;10.48;6.88;;;;;;;;;;10596665;27;20104;-76
2022/01/22 20:03:11;;;;;;;8.35;6.18;;;;;;;;;;10573078;27;20084;-73
2022/01/22 20:08:15;;;;;;;7.35;6.50;;;;;;;;;;10555119;28;20047;-72
2022/01/22 20:13:17;;;;;;;11.98;6.65;;;;;;;;;;10554408;28;20032;-75
2022/01/22 20:18:17;;;;;;;13.10;7.05;;;;;;;;;;10554036;28;20075;-72
2022/01/22 20:23:18;;;;;;;10.27;6.80;;;;;;;;;;10560932;27;20653;-76
2022/01/22 20:28:18;;;;;;;10.83;6.27;;;;;;;;;;10578972;27;20020;-75
2022/01/22 20:33:19;;;;;;;8.15;6.32;;;;;;;;;;10569640;28;20268;-78
2022/01/22 20:38:19;;;;;;;11.73;10.60;;;;;;;;;;10571547;28;20064;-73
2022/01/22 20:43:19;;;;;;;15.68;8.82;;;;;;;;;;10570340;28;20387;-73
2022/01/22 20:48:20;;;;;;;8.53;7.13;;;;;;;;;;10553142;28;20492;-78
2022/01/22 20:53:20;;;;;;;16.83;9.03;;;;;;;;;;10590075;27;20026;-78
2022/01/22 20:58:31;;;;;;;11.27;8.35;;;;;;;;;;10594916;27;20296;-73
2022/01/22 21:03:32;;;;;;;12.55;9.82;;;;;;;;;;10595050;27;20094;-77
2022/01/22 21:08:32;;;;;;;17.63;10.50;;;;;;;;;;10594970;27;20044;-78
2022/01/22 21:13:33;;;;;;;9.32;6.25;;;;;;;;;;10594017;27;20031;-78
2022/01/22 21:18:33;;;;;;;15.88;9.10;;;;;;;;;;10593848;27;20019;-73
2022/01/22 21:23:34;;;;;;;14.45;10.70;;;;;;;;;;10595103;27;20174;-75
2022/01/22 21:28:34;;;;;;;16.07;9.90;;;;;;;;;;10594099;27;20024;-77
2022/01/22 21:33:48;;;;;;;10.75;9.80;;;;;;;;;;10559435;28;20023;-73
2022/01/22 21:39:42;;;;;;;11.00;9.98;;;;;;;;;;10551441;28;20050;-77
2022/01/22 21:44:11;;;;;;;13.95;12.60;;;;;;;;;;10569215;28;20035;-77
2022/01/22 21:49:12;;;;;;;19.45;17.48;;;;;;;;;;10550300;28;20024;-77
2022/01/22 21:54:12;;;;;;;12.40;11.23;;;;;;;;;;10550955;28;20032;-73
2022/01/22 21:59:12;;;;;;;16.50;10.73;;;;;;;;;;10550633;28;20142;-77
2022/01/22 22:04:12;;;;;;;12.60;9.23;;;;;;;;;;10550166;28;20038;-74
2022/01/22 22:09:13;;;;;;;13.87;9.80;;;;;;;;;;10550255;28;20455;-73
2022/01/22 22:14:14;;;;;;;12.27;11.15;;;;;;;;;;10591628;27;20023;-77
2022/01/22 22:19:14;;;;;;;14.50;12.77;;;;;;;;;;10591257;27;20371;-74
2022/01/22 22:24:14;;;;;;;10.90;8.10;;;;;;;;;;10592610;27;20268;-76
2022/01/22 22:29:15;;;;;;;9.60;8.40;;;;;;;;;;10576012;27;20033;-73
2022/01/22 22:34:15;;;;;;;16.43;10.80;;;;;;;;;;10592238;27;20050;-73
2022/01/22 22:39:15;;;;;;;20.37;9.90;;;;;;;;;;10574982;27;20027;-73
2022/01/22 22:44:15;;;;;;;9.70;7.80;;;;;;;;;;10591526;27;20023;-73
2022/01/22 22:49:16;;;;;;;13.03;12.03;;;;;;;;;;10591054;27;20084;-78
2022/01/22 22:54:16;;;;;;;12.87;9.07;;;;;;;;;;10564749;28;20096;-74
2022/01/22 22:59:16;;;;;;;15.60;9.07;;;;;;;;;;10565672;27;20300;-76
2022/01/22 23:04:17;;;;;;;12.82;7.70;;;;;;;;;;10589412;27;20138;-75
2022/01/22 23:09:17;;;;;;;13.65;7.15;;;;;;;;;;10589828;27;20019;-73
2022/01/22 23:14:17;;;;;;;8.85;7.78;;;;;;;;;;10591061;27;20416;-78
2022/01/22 23:29:56;;;;;;;8.02;7.28;;;;;;;;;;10613856;27;20130;-73
2022/01/22 23:35:11;;;;;;;15.57;11.88;;;;;;;;;;10598725;27;20027;-74
2022/01/22 23:56:20;;;;;;;6.25;5.75;;;;;;;;;;10616677;27;20436;-77
